sensor_id;sensor_type;location;lat;lon;timestamp;P1;durP1;ratioP1;P2;durP2;ratioP2
39050;SDS011;24805;55.852;37.644;2023-06-10T00:00:58;3.95;;;1.35;;
39050;SDS011;24805;55.852;37.644;2023-06-10T00:06:01;4.20;;;1.90;;
39050;SDS011;24805;55.852;37.644;2023-06-10T00:11:04;4.75;;;2.08;;
39050;SDS011;24805;55.852;37.644;2023-06-10T00:16:06;5.28;;;2.03;;
39050;SDS011;24805;55.852;37.644;2023-06-10T00:21:08;4.45;;;2.00;;
39050;SDS011;24805;55.852;37.644;2023-06-10T00:26:10;3.63;;;2.00;;
39050;SDS011;24805;55.852;37.644;2023-06-10T00:31:13;4.55;;;1.85;;
39050;SDS011;24805;55.852;37.644;2023-06-10T00:36:16;4.20;;;2.03;;
39050;SDS011;24805;55.852;37.644;2023-06-10T00:41:18;5.22;;;1.80;;
39050;SDS011;24805;55.852;37.644;2023-06-10T00:46:23;3.13;;;1.90;;
39050;SDS011;24805;55.852;37.644;2023-06-10T00:51:29;3.60;;;2.30;;
39050;SDS011;24805;55.852;37.644;2023-06-10T00:56:32;7.00;;;2.78;;
39050;SDS011;24805;55.852;37.644;2023-06-10T01:01:37;4.18;;;2.10;;
39050;SDS011;24805;55.852;37.644;2023-06-10T01:17:25;3.83;;;2.20;;
39050;SDS011;24805;55.852;37.644;2023-06-10T01:22:29;3.45;;;2.20;;
39050;SDS011;24805;55.852;37.644;2023-06-10T01:27:34;4.40;;;2.20;;
39050;SDS011;24805;55.852;37.644;2023-06-10T01:32:43;4.18;;;2.10;;
39050;SDS011;24805;55.852;37.644;2023-06-10T01:37:52;5.07;;;1.83;;
39050;SDS011;24805;55.852;37.644;2023-06-10T01:42:57;3.53;;;2.05;;
39050;SDS011;24805;55.852;37.644;2023-06-10T01:53:01;4.43;;;1.80;;
39050;SDS011;24805;55.852;37.644;2023-06-10T01:58:03;4.95;;;1.70;;
39050;SDS011;24805;55.852;37.644;2023-06-10T02:03:05;4.15;;;1.90;;
39050;SDS011;24805;55.852;37.644;2023-06-10T02:08:08;4.18;;;2.20;;
39050;SDS011;24805;55.852;37.644;2023-06-10T02:13:10;7.38;;;1.95;;
39050;SDS011;24805;55.852;37.644;2023-06-10T02:18:13;4.18;;;1.80;;
39050;SDS011;24805;55.852;37.644;2023-06-10T02:23:15;5.63;;;1.80;;
39050;SDS011;24805;55.852;37.644;2023-06-10T02:28:17;2.63;;;1.63;;
39050;SDS011;24805;55.852;37.644;2023-06-10T02:33:19;2.65;;;1.65;;
39050;SDS011;24805;55.852;37.644;2023-06-10T02:38:22;3.42;;;1.90;;
39050;SDS011;24805;55.852;37.644;2023-06-10T02:43:24;3.97;;;2.05;;
39050;SDS011;24805;55.852;37.644;2023-06-10T02:48:27;4.05;;;1.65;;
39050;SDS011;24805;55.852;37.644;2023-06-10T02:53:30;3.83;;;1.67;;
39050;SDS011;24805;55.852;37.644;2023-06-10T02:58:39;6.38;;;1.95;;
39050;SDS011;24805;55.852;37.644;2023-06-10T03:03:43;6.13;;;1.58;;
39050;SDS011;24805;55.852;37.644;2023-06-10T03:08:48;5.05;;;1.63;;
39050;SDS011;24805;55.852;37.644;2023-06-10T03:13:53;2.13;;;1.50;;
39050;SDS011;24805;55.852;37.644;2023-06-10T03:18:57;3.10;;;1.20;;
39050;SDS011;24805;55.852;37.644;2023-06-10T03:23:59;3.63;;;1.20;;
39050;SDS011;24805;55.852;37.644;2023-06-10T03:29:02;2.72;;;1.42;;
39050;SDS011;24805;55.852;37.644;2023-06-10T03:34:05;4.63;;;1.17;;
39050;SDS011;24805;55.852;37.644;2023-06-10T03:39:07;3.90;;;1.17;;
39050;SDS011;24805;55.852;37.644;2023-06-10T03:44:10;3.42;;;1.08;;
39050;SDS011;24805;55.852;37.644;2023-06-10T03:49:13;3.88;;;1.10;;
39050;SDS011;24805;55.852;37.644;2023-06-10T03:54:17;1.67;;;1.10;;
39050;SDS011;24805;55.852;37.644;2023-06-10T03:59:19;2.65;;;0.93;;
39050;SDS011;24805;55.852;37.644;2023-06-10T04:04:23;2.50;;;1.05;;
39050;SDS011;24805;55.852;37.644;2023-06-10T04:09:25;2.80;;;0.82;;
39050;SDS011;24805;55.852;37.644;2023-06-10T04:14:28;5.10;;;0.90;;
39050;SDS011;24805;55.852;37.644;2023-06-10T04:19:30;1.58;;;0.70;;
39050;SDS011;24805;55.852;37.644;2023-06-10T04:24:33;2.17;;;0.80;;
39050;SDS011;24805;55.852;37.644;2023-06-10T04:29:35;2.67;;;1.15;;
39050;SDS011;24805;55.852;37.644;2023-06-10T04:34:38;2.92;;;0.88;;
39050;SDS011;24805;55.852;37.644;2023-06-10T04:39:41;3.90;;;0.82;;
39050;SDS011;24805;55.852;37.644;2023-06-10T04:44:44;1.55;;;0.77;;
39050;SDS011;24805;55.852;37.644;2023-06-10T04:49:46;3.28;;;0.98;;
39050;SDS011;24805;55.852;37.644;2023-06-10T04:54:48;1.40;;;0.80;;
39050;SDS011;24805;55.852;37.644;2023-06-10T04:59:51;1.05;;;0.77;;
39050;SDS011;24805;55.852;37.644;2023-06-10T05:04:54;3.15;;;0.80;;
39050;SDS011;24805;55.852;37.644;2023-06-10T05:09:56;3.45;;;0.82;;
39050;SDS011;24805;55.852;37.644;2023-06-10T05:14:59;4.47;;;0.77;;
39050;SDS011;24805;55.852;37.644;2023-06-10T05:20:01;4.75;;;1.40;;
39050;SDS011;24805;55.852;37.644;2023-06-10T05:25:04;3.58;;;1.00;;
39050;SDS011;24805;55.852;37.644;2023-06-10T05:30:09;2.38;;;0.88;;
39050;SDS011;24805;55.852;37.644;2023-06-10T05:35:12;3.50;;;0.80;;
39050;SDS011;24805;55.852;37.644;2023-06-10T05:40:14;3.40;;;0.60;;
39050;SDS011;24805;55.852;37.644;2023-06-10T05:45:16;2.90;;;0.55;;
39050;SDS011;24805;55.852;37.644;2023-06-10T05:50:18;1.05;;;0.60;;
39050;SDS011;24805;55.852;37.644;2023-06-10T05:55:20;1.98;;;1.15;;
39050;SDS011;24805;55.852;37.644;2023-06-10T06:00:23;3.17;;;0.45;;
39050;SDS011;24805;55.852;37.644;2023-06-10T06:05:25;2.60;;;0.32;;
39050;SDS011;24805;55.852;37.644;2023-06-10T06:10:27;2.97;;;0.60;;
39050;SDS011;24805;55.852;37.644;2023-06-10T06:15:29;2.22;;;0.30;;
39050;SDS011;24805;55.852;37.644;2023-06-10T06:20:31;1.60;;;0.50;;
39050;SDS011;24805;55.852;37.644;2023-06-10T06:25:34;3.50;;;0.50;;
39050;SDS011;24805;55.852;37.644;2023-06-10T06:30:37;2.22;;;0.50;;
39050;SDS011;24805;55.852;37.644;2023-06-10T06:35:39;1.45;;;0.38;;
39050;SDS011;24805;55.852;37.644;2023-06-10T06:40:41;5.30;;;0.90;;
39050;SDS011;24805;55.852;37.644;2023-06-10T06:45:44;1.33;;;0.40;;
39050;SDS011;24805;55.852;37.644;2023-06-10T06:50:49;0.88;;;0.30;;
39050;SDS011;24805;55.852;37.644;2023-06-10T06:55:51;5.82;;;0.50;;
39050;SDS011;24805;55.852;37.644;2023-06-10T07:00:53;0.75;;;0.30;;
39050;SDS011;24805;55.852;37.644;2023-06-10T07:05:57;1.85;;;0.30;;
39050;SDS011;24805;55.852;37.644;2023-06-10T07:10:59;1.42;;;0.30;;
39050;SDS011;24805;55.852;37.644;2023-06-10T07:16:01;3.47;;;0.90;;
39050;SDS011;24805;55.852;37.644;2023-06-10T07:21:04;1.60;;;0.30;;
39050;SDS011;24805;55.852;37.644;2023-06-10T07:26:06;1.95;;;0.30;;
39050;SDS011;24805;55.852;37.644;2023-06-10T07:31:09;2.95;;;0.28;;
39050;SDS011;24805;55.852;37.644;2023-06-10T07:36:13;5.40;;;0.20;;
39050;SDS011;24805;55.852;37.644;2023-06-10T07:41:15;3.22;;;0.25;;
39050;SDS011;24805;55.852;37.644;2023-06-10T07:46:20;2.97;;;0.25;;
39050;SDS011;24805;55.852;37.644;2023-06-10T07:51:23;3.20;;;0.40;;
39050;SDS011;24805;55.852;37.644;2023-06-10T07:56:25;2.85;;;0.30;;
39050;SDS011;24805;55.852;37.644;2023-06-10T08:01:28;1.80;;;0.20;;
39050;SDS011;24805;55.852;37.644;2023-06-10T08:06:31;2.35;;;0.50;;
39050;SDS011;24805;55.852;37.644;2023-06-10T08:11:34;1.55;;;0.10;;
39050;SDS011;24805;55.852;37.644;2023-06-10T08:16:36;3.13;;;0.20;;
39050;SDS011;24805;55.852;37.644;2023-06-10T08:21:38;4.00;;;0.30;;
39050;SDS011;24805;55.852;37.644;2023-06-10T08:26:41;0.45;;;0.20;;
39050;SDS011;24805;55.852;37.644;2023-06-10T08:31:43;3.38;;;0.40;;
39050;SDS011;24805;55.852;37.644;2023-06-10T08:36:46;7.20;;;0.80;;
39050;SDS011;24805;55.852;37.644;2023-06-10T08:41:51;1.90;;;0.20;;
39050;SDS011;24805;55.852;37.644;2023-06-10T08:52:19;3.13;;;0.47;;
39050;SDS011;24805;55.852;37.644;2023-06-10T08:57:22;2.03;;;0.32;;
39050;SDS011;24805;55.852;37.644;2023-06-10T09:02:25;1.42;;;0.40;;
39050;SDS011;24805;55.852;37.644;2023-06-10T09:07:30;3.60;;;0.30;;
39050;SDS011;24805;55.852;37.644;2023-06-10T09:12:37;0.90;;;0.20;;
39050;SDS011;24805;55.852;37.644;2023-06-10T09:17:40;2.88;;;0.30;;
39050;SDS011;24805;55.852;37.644;2023-06-10T09:22:42;2.25;;;0.40;;
39050;SDS011;24805;55.852;37.644;2023-06-10T09:32:53;1.48;;;0.20;;
39050;SDS011;24805;55.852;37.644;2023-06-10T09:37:58;1.58;;;0.20;;
39050;SDS011;24805;55.852;37.644;2023-06-10T09:43:01;0.50;;;0.20;;
39050;SDS011;24805;55.852;37.644;2023-06-10T09:48:03;0.73;;;0.17;;
39050;SDS011;24805;55.852;37.644;2023-06-10T09:53:06;2.10;;;0.38;;
39050;SDS011;24805;55.852;37.644;2023-06-10T09:58:08;1.35;;;0.30;;
39050;SDS011;24805;55.852;37.644;2023-06-10T10:03:10;1.60;;;0.10;;
39050;SDS011;24805;55.852;37.644;2023-06-10T10:08:24;3.55;;;0.30;;
39050;SDS011;24805;55.852;37.644;2023-06-10T10:13:26;1.25;;;0.43;;
39050;SDS011;24805;55.852;37.644;2023-06-10T10:18:29;1.45;;;0.22;;
39050;SDS011;24805;55.852;37.644;2023-06-10T10:23:39;1.38;;;0.20;;
39050;SDS011;24805;55.852;37.644;2023-06-10T10:28:58;2.60;;;0.22;;
39050;SDS011;24805;55.852;37.644;2023-06-10T10:34:11;1.00;;;0.20;;
39050;SDS011;24805;55.852;37.644;2023-06-10T10:39:17;2.90;;;0.30;;
39050;SDS011;24805;55.852;37.644;2023-06-10T10:44:20;2.15;;;0.20;;
39050;SDS011;24805;55.852;37.644;2023-06-10T10:49:23;1.52;;;0.20;;
39050;SDS011;24805;55.852;37.644;2023-06-10T10:54:33;2.55;;;0.20;;
39050;SDS011;24805;55.852;37.644;2023-06-10T10:59:54;0.65;;;0.20;;
39050;SDS011;24805;55.852;37.644;2023-06-10T11:04:58;0.63;;;0.30;;
39050;SDS011;24805;55.852;37.644;2023-06-10T11:10:06;1.50;;;0.25;;
39050;SDS011;24805;55.852;37.644;2023-06-10T11:20:35;1.35;;;0.47;;
39050;SDS011;24805;55.852;37.644;2023-06-10T11:31:20;0.40;;;0.10;;
39050;SDS011;24805;55.852;37.644;2023-06-10T11:36:27;2.00;;;0.27;;
39050;SDS011;24805;55.852;37.644;2023-06-10T11:41:31;1.85;;;0.22;;
39050;SDS011;24805;55.852;37.644;2023-06-10T11:46:34;3.30;;;0.20;;
39050;SDS011;24805;55.852;37.644;2023-06-10T11:51:37;3.92;;;0.20;;
39050;SDS011;24805;55.852;37.644;2023-06-10T11:56:42;1.55;;;0.65;;
39050;SDS011;24805;55.852;37.644;2023-06-10T12:01:45;2.95;;;0.60;;
39050;SDS011;24805;55.852;37.644;2023-06-10T12:06:49;1.90;;;0.30;;
39050;SDS011;24805;55.852;37.644;2023-06-10T12:11:54;2.50;;;0.20;;
39050;SDS011;24805;55.852;37.644;2023-06-10T12:17:01;1.70;;;0.40;;
39050;SDS011;24805;55.852;37.644;2023-06-10T12:22:04;2.13;;;0.22;;
39050;SDS011;24805;55.852;37.644;2023-06-10T12:27:10;3.97;;;0.55;;
39050;SDS011;24805;55.852;37.644;2023-06-10T12:32:13;1.20;;;0.38;;
39050;SDS011;24805;55.852;37.644;2023-06-10T12:37:16;2.67;;;0.85;;
39050;SDS011;24805;55.852;37.644;2023-06-10T12:42:21;1.52;;;0.30;;
39050;SDS011;24805;55.852;37.644;2023-06-10T12:47:30;4.68;;;0.50;;
39050;SDS011;24805;55.852;37.644;2023-06-10T12:52:43;1.52;;;0.50;;
39050;SDS011;24805;55.852;37.644;2023-06-10T12:57:49;2.13;;;0.30;;
39050;SDS011;24805;55.852;37.644;2023-06-10T13:02:52;6.43;;;0.52;;
39050;SDS011;24805;55.852;37.644;2023-06-10T13:07:57;2.42;;;0.57;;
39050;SDS011;24805;55.852;37.644;2023-06-10T13:13:00;4.13;;;0.95;;
39050;SDS011;24805;55.852;37.644;2023-06-10T13:18:03;2.20;;;0.40;;
39050;SDS011;24805;55.852;37.644;2023-06-10T13:23:07;4.82;;;0.55;;
39050;SDS011;24805;55.852;37.644;2023-06-10T13:28:09;7.20;;;0.50;;
39050;SDS011;24805;55.852;37.644;2023-06-10T13:33:11;2.05;;;0.22;;
39050;SDS011;24805;55.852;37.644;2023-06-10T13:38:14;1.73;;;0.40;;
39050;SDS011;24805;55.852;37.644;2023-06-10T13:43:16;3.60;;;0.50;;
39050;SDS011;24805;55.852;37.644;2023-06-10T13:48:18;4.28;;;0.30;;
39050;SDS011;24805;55.852;37.644;2023-06-10T13:53:21;3.63;;;0.40;;
39050;SDS011;24805;55.852;37.644;2023-06-10T13:58:23;2.35;;;0.50;;
39050;SDS011;24805;55.852;37.644;2023-06-10T14:03:26;3.00;;;0.88;;
39050;SDS011;24805;55.852;37.644;2023-06-10T14:08:28;4.25;;;0.50;;
39050;SDS011;24805;55.852;37.644;2023-06-10T14:13:31;2.63;;;0.57;;
39050;SDS011;24805;55.852;37.644;2023-06-10T14:18:35;2.20;;;0.68;;
39050;SDS011;24805;55.852;37.644;2023-06-10T14:23:37;2.55;;;0.38;;
39050;SDS011;24805;55.852;37.644;2023-06-10T14:28:39;2.72;;;0.30;;
39050;SDS011;24805;55.852;37.644;2023-06-10T14:33:41;4.20;;;0.70;;
39050;SDS011;24805;55.852;37.644;2023-06-10T14:38:45;2.90;;;0.75;;
39050;SDS011;24805;55.852;37.644;2023-06-10T14:43:47;1.80;;;0.50;;
39050;SDS011;24805;55.852;37.644;2023-06-10T14:48:50;2.60;;;0.60;;
39050;SDS011;24805;55.852;37.644;2023-06-10T14:53:52;6.88;;;0.70;;
39050;SDS011;24805;55.852;37.644;2023-06-10T14:58:55;3.05;;;0.43;;
39050;SDS011;24805;55.852;37.644;2023-06-10T15:03:57;3.38;;;0.50;;
39050;SDS011;24805;55.852;37.644;2023-06-10T15:08:59;2.20;;;0.60;;
39050;SDS011;24805;55.852;37.644;2023-06-10T15:14:01;5.32;;;0.95;;
39050;SDS011;24805;55.852;37.644;2023-06-10T15:19:03;4.32;;;0.75;;
39050;SDS011;24805;55.852;37.644;2023-06-10T15:24:09;6.35;;;1.00;;
39050;SDS011;24805;55.852;37.644;2023-06-10T15:29:11;8.73;;;0.50;;
39050;SDS011;24805;55.852;37.644;2023-06-10T15:34:14;1.40;;;0.50;;
39050;SDS011;24805;55.852;37.644;2023-06-10T15:39:16;3.38;;;0.70;;
39050;SDS011;24805;55.852;37.644;2023-06-10T15:44:18;3.80;;;0.95;;
39050;SDS011;24805;55.852;37.644;2023-06-10T15:49:20;6.40;;;1.23;;
39050;SDS011;24805;55.852;37.644;2023-06-10T15:54:22;8.02;;;4.35;;
39050;SDS011;24805;55.852;37.644;2023-06-10T15:59:25;4.35;;;1.90;;
39050;SDS011;24805;55.852;37.644;2023-06-10T16:04:27;4.07;;;2.15;;
39050;SDS011;24805;55.852;37.644;2023-06-10T16:09:29;3.90;;;1.02;;
39050;SDS011;24805;55.852;37.644;2023-06-10T16:14:31;2.42;;;0.65;;
39050;SDS011;24805;55.852;37.644;2023-06-10T16:19:34;2.08;;;0.40;;
39050;SDS011;24805;55.852;37.644;2023-06-10T16:24:39;3.30;;;0.60;;
39050;SDS011;24805;55.852;37.644;2023-06-10T16:29:42;2.58;;;0.60;;
39050;SDS011;24805;55.852;37.644;2023-06-10T16:34:44;5.03;;;1.20;;
39050;SDS011;24805;55.852;37.644;2023-06-10T16:39:46;1.08;;;0.60;;
39050;SDS011;24805;55.852;37.644;2023-06-10T16:44:48;2.13;;;1.00;;
39050;SDS011;24805;55.852;37.644;2023-06-10T16:49:51;2.35;;;0.55;;
39050;SDS011;24805;55.852;37.644;2023-06-10T16:54:53;4.63;;;0.75;;
39050;SDS011;24805;55.852;37.644;2023-06-10T16:59:55;3.50;;;0.85;;
39050;SDS011;24805;55.852;37.644;2023-06-10T17:04:57;4.30;;;0.90;;
39050;SDS011;24805;55.852;37.644;2023-06-10T17:09:59;1.25;;;0.75;;
39050;SDS011;24805;55.852;37.644;2023-06-10T17:15:02;1.80;;;0.80;;
39050;SDS011;24805;55.852;37.644;2023-06-10T17:20:04;3.03;;;0.73;;
39050;SDS011;24805;55.852;37.644;2023-06-10T17:25:08;1.73;;;0.60;;
39050;SDS011;24805;55.852;37.644;2023-06-10T17:30:11;1.88;;;0.60;;
39050;SDS011;24805;55.852;37.644;2023-06-10T17:35:13;2.47;;;1.38;;
39050;SDS011;24805;55.852;37.644;2023-06-10T17:40:15;4.00;;;0.80;;
39050;SDS011;24805;55.852;37.644;2023-06-10T17:45:17;3.05;;;1.00;;
39050;SDS011;24805;55.852;37.644;2023-06-10T17:50:19;2.78;;;1.00;;
39050;SDS011;24805;55.852;37.644;2023-06-10T17:55:22;3.63;;;1.10;;
39050;SDS011;24805;55.852;37.644;2023-06-10T18:00:24;3.67;;;1.05;;
39050;SDS011;24805;55.852;37.644;2023-06-10T18:05:26;4.30;;;1.25;;
39050;SDS011;24805;55.852;37.644;2023-06-10T18:10:28;4.75;;;1.38;;
39050;SDS011;24805;55.852;37.644;2023-06-10T18:15:31;3.72;;;1.50;;
39050;SDS011;24805;55.852;37.644;2023-06-10T18:20:37;5.30;;;1.25;;
39050;SDS011;24805;55.852;37.644;2023-06-10T18:30:41;2.95;;;1.10;;
39050;SDS011;24805;55.852;37.644;2023-06-10T18:35:43;3.53;;;1.90;;
39050;SDS011;24805;55.852;37.644;2023-06-10T18:40:45;2.92;;;1.02;;
39050;SDS011;24805;55.852;37.644;2023-06-10T18:45:47;1.83;;;1.00;;
39050;SDS011;24805;55.852;37.644;2023-06-10T18:50:50;4.05;;;1.08;;
39050;SDS011;24805;55.852;37.644;2023-06-10T18:55:52;7.03;;;1.10;;
39050;SDS011;24805;55.852;37.644;2023-06-10T19:05:56;3.28;;;1.75;;
39050;SDS011;24805;55.852;37.644;2023-06-10T19:11:01;4.85;;;2.63;;
39050;SDS011;24805;55.852;37.644;2023-06-10T19:16:04;4.90;;;1.60;;
39050;SDS011;24805;55.852;37.644;2023-06-10T19:21:08;2.90;;;1.70;;
39050;SDS011;24805;55.852;37.644;2023-06-10T19:26:10;5.07;;;1.58;;
39050;SDS011;24805;55.852;37.644;2023-06-10T19:36:15;6.85;;;1.70;;
39050;SDS011;24805;55.852;37.644;2023-06-10T19:41:18;9.82;;;2.00;;
39050;SDS011;24805;55.852;37.644;2023-06-10T19:46:21;2.97;;;1.85;;
39050;SDS011;24805;55.852;37.644;2023-06-10T19:51:24;4.40;;;2.13;;
39050;SDS011;24805;55.852;37.644;2023-06-10T19:56:26;3.72;;;2.40;;
39050;SDS011;24805;55.852;37.644;2023-06-10T20:01:30;3.63;;;2.35;;
39050;SDS011;24805;55.852;37.644;2023-06-10T20:06:32;4.95;;;2.33;;
39050;SDS011;24805;55.852;37.644;2023-06-10T20:16:36;4.63;;;2.42;;
39050;SDS011;24805;55.852;37.644;2023-06-10T20:21:39;2.60;;;2.05;;
39050;SDS011;24805;55.852;37.644;2023-06-10T20:26:41;3.88;;;2.45;;
39050;SDS011;24805;55.852;37.644;2023-06-10T20:31:43;8.57;;;2.60;;
39050;SDS011;24805;55.852;37.644;2023-06-10T20:36:47;3.92;;;2.15;;
39050;SDS011;24805;55.852;37.644;2023-06-10T20:41:49;4.60;;;2.03;;
39050;SDS011;24805;55.852;37.644;2023-06-10T20:46:51;6.60;;;2.10;;
39050;SDS011;24805;55.852;37.644;2023-06-10T20:56:56;5.10;;;2.35;;
39050;SDS011;24805;55.852;37.644;2023-06-10T21:07:01;4.78;;;1.90;;
39050;SDS011;24805;55.852;37.644;2023-06-10T21:12:03;6.15;;;2.28;;
39050;SDS011;24805;55.852;37.644;2023-06-10T21:17:07;5.45;;;2.22;;
39050;SDS011;24805;55.852;37.644;2023-06-10T21:22:09;3.40;;;2.40;;
39050;SDS011;24805;55.852;37.644;2023-06-10T21:32:14;7.47;;;2.30;;
39050;SDS011;24805;55.852;37.644;2023-06-10T21:37:16;6.13;;;2.53;;
39050;SDS011;24805;55.852;37.644;2023-06-10T21:42:18;9.20;;;2.60;;
39050;SDS011;24805;55.852;37.644;2023-06-10T21:47:20;7.70;;;2.75;;
39050;SDS011;24805;55.852;37.644;2023-06-10T21:52:22;7.78;;;3.80;;
39050;SDS011;24805;55.852;37.644;2023-06-10T21:57:25;4.70;;;2.38;;
39050;SDS011;24805;55.852;37.644;2023-06-10T22:02:27;5.28;;;2.83;;
39050;SDS011;24805;55.852;37.644;2023-06-10T22:07:29;5.60;;;2.78;;
39050;SDS011;24805;55.852;37.644;2023-06-10T22:12:31;4.88;;;2.47;;
39050;SDS011;24805;55.852;37.644;2023-06-10T22:22:36;5.40;;;2.55;;
39050;SDS011;24805;55.852;37.644;2023-06-10T22:27:38;6.07;;;2.40;;
39050;SDS011;24805;55.852;37.644;2023-06-10T22:37:42;4.57;;;2.80;;
39050;SDS011;24805;55.852;37.644;2023-06-10T22:42:44;9.50;;;2.80;;
39050;SDS011;24805;55.852;37.644;2023-06-10T22:47:46;5.30;;;2.38;;
39050;SDS011;24805;55.852;37.644;2023-06-10T22:52:49;6.78;;;3.00;;
39050;SDS011;24805;55.852;37.644;2023-06-10T22:57:51;4.97;;;2.90;;
39050;SDS011;24805;55.852;37.644;2023-06-10T23:02:53;5.90;;;2.80;;
39050;SDS011;24805;55.852;37.644;2023-06-10T23:07:56;3.90;;;2.55;;
39050;SDS011;24805;55.852;37.644;2023-06-10T23:12:58;4.43;;;2.33;;
39050;SDS011;24805;55.852;37.644;2023-06-10T23:23:02;4.35;;;2.53;;
39050;SDS011;24805;55.852;37.644;2023-06-10T23:28:05;5.22;;;2.70;;
39050;SDS011;24805;55.852;37.644;2023-06-10T23:33:07;5.15;;;2.60;;
39050;SDS011;24805;55.852;37.644;2023-06-10T23:38:10;4.60;;;2.70;;
39050;SDS011;24805;55.852;37.644;2023-06-10T23:43:12;7.25;;;2.72;;
39050;SDS011;24805;55.852;37.644;2023-06-10T23:48:15;5.03;;;3.00;;
39050;SDS011;24805;55.852;37.644;2023-06-10T23:53:17;4.85;;;2.50;;
39050;SDS011;24805;55.852;37.644;2023-06-10T23:58:19;4.55;;;2.25;;
